sensor_id;sensor_type;location;lat;lon;timestamp;P1;durP1;ratioP1;P2;durP2;ratioP2
69569;SDS011;56781;42.292;23.146;2023-03-16T00:00:17;0.50;;;0.10;;
69569;SDS011;56781;42.292;23.146;2023-03-16T00:02:44;1.50;;;0.43;;
69569;SDS011;56781;42.292;23.146;2023-03-16T00:05:12;0.55;;;0.17;;
69569;SDS011;56781;42.292;23.146;2023-03-16T00:07:40;1.13;;;0.30;;
69569;SDS011;56781;42.292;23.146;2023-03-16T00:10:08;0.70;;;0.20;;
69569;SDS011;56781;42.292;23.146;2023-03-16T00:12:38;0.40;;;0.10;;
69569;SDS011;56781;42.292;23.146;2023-03-16T00:15:09;0.55;;;0.20;;
69569;SDS011;56781;42.292;23.146;2023-03-16T00:17:37;0.60;;;0.20;;
69569;SDS011;56781;42.292;23.146;2023-03-16T00:20:05;0.70;;;0.20;;
69569;SDS011;56781;42.292;23.146;2023-03-16T00:22:32;1.50;;;0.40;;
69569;SDS011;56781;42.292;23.146;2023-03-16T00:25:00;1.80;;;0.60;;
69569;SDS011;56781;42.292;23.146;2023-03-16T00:27:27;1.60;;;0.40;;
69569;SDS011;56781;42.292;23.146;2023-03-16T00:29:55;1.45;;;0.40;;
69569;SDS011;56781;42.292;23.146;2023-03-16T00:32:24;1.80;;;0.50;;
69569;SDS011;56781;42.292;23.146;2023-03-16T00:35:00;1.00;;;0.20;;
69569;SDS011;56781;42.292;23.146;2023-03-16T00:37:27;1.40;;;0.40;;
69569;SDS011;56781;42.292;23.146;2023-03-16T00:39:56;2.20;;;0.47;;
69569;SDS011;56781;42.292;23.146;2023-03-16T00:42:24;2.67;;;0.52;;
69569;SDS011;56781;42.292;23.146;2023-03-16T00:44:54;1.73;;;0.50;;
69569;SDS011;56781;42.292;23.146;2023-03-16T00:47:27;3.33;;;1.23;;
69569;SDS011;56781;42.292;23.146;2023-03-16T00:49:57;1.42;;;0.40;;
69569;SDS011;56781;42.292;23.146;2023-03-16T00:52:25;2.53;;;0.70;;
69569;SDS011;56781;42.292;23.146;2023-03-16T00:54:54;1.40;;;0.30;;
69569;SDS011;56781;42.292;23.146;2023-03-16T00:57:22;1.38;;;0.43;;
69569;SDS011;56781;42.292;23.146;2023-03-16T00:59:51;2.13;;;0.60;;
69569;SDS011;56781;42.292;23.146;2023-03-16T01:02:18;2.78;;;0.70;;
69569;SDS011;56781;42.292;23.146;2023-03-16T01:04:49;2.08;;;0.65;;
69569;SDS011;56781;42.292;23.146;2023-03-16T01:07:17;3.83;;;0.70;;
69569;SDS011;56781;42.292;23.146;2023-03-16T01:09:46;2.03;;;0.60;;
69569;SDS011;56781;42.292;23.146;2023-03-16T01:12:14;2.70;;;0.70;;
69569;SDS011;56781;42.292;23.146;2023-03-16T01:14:43;9.60;;;2.20;;
69569;SDS011;56781;42.292;23.146;2023-03-16T01:17:14;2.97;;;0.60;;
69569;SDS011;56781;42.292;23.146;2023-03-16T01:19:43;1.60;;;0.50;;
69569;SDS011;56781;42.292;23.146;2023-03-16T01:22:11;1.52;;;0.30;;
69569;SDS011;56781;42.292;23.146;2023-03-16T01:24:38;1.47;;;0.30;;
69569;SDS011;56781;42.292;23.146;2023-03-16T01:27:06;1.15;;;0.35;;
69569;SDS011;56781;42.292;23.146;2023-03-16T01:29:34;2.42;;;0.40;;
69569;SDS011;56781;42.292;23.146;2023-03-16T01:32:02;1.00;;;0.20;;
69569;SDS011;56781;42.292;23.146;2023-03-16T01:34:30;1.45;;;0.40;;
69569;SDS011;56781;42.292;23.146;2023-03-16T01:36:57;1.80;;;0.40;;
69569;SDS011;56781;42.292;23.146;2023-03-16T01:39:25;1.55;;;0.30;;
69569;SDS011;56781;42.292;23.146;2023-03-16T01:41:53;2.55;;;0.40;;
69569;SDS011;56781;42.292;23.146;2023-03-16T01:44:21;1.85;;;0.57;;
69569;SDS011;56781;42.292;23.146;2023-03-16T01:46:53;1.70;;;0.50;;
69569;SDS011;56781;42.292;23.146;2023-03-16T01:49:25;2.57;;;0.60;;
69569;SDS011;56781;42.292;23.146;2023-03-16T01:52:01;2.17;;;0.47;;
69569;SDS011;56781;42.292;23.146;2023-03-16T01:54:46;1.95;;;0.40;;
69569;SDS011;56781;42.292;23.146;2023-03-16T01:57:23;1.65;;;0.45;;
69569;SDS011;56781;42.292;23.146;2023-03-16T02:02:37;1.43;;;0.43;;
69569;SDS011;56781;42.292;23.146;2023-03-16T02:05:15;1.52;;;0.50;;
69569;SDS011;56781;42.292;23.146;2023-03-16T02:07:49;1.75;;;0.40;;
69569;SDS011;56781;42.292;23.146;2023-03-16T02:10:25;1.50;;;0.28;;
69569;SDS011;56781;42.292;23.146;2023-03-16T02:12:54;2.05;;;0.40;;
69569;SDS011;56781;42.292;23.146;2023-03-16T02:15:23;1.57;;;0.30;;
69569;SDS011;56781;42.292;23.146;2023-03-16T02:17:51;2.33;;;0.50;;
69569;SDS011;56781;42.292;23.146;2023-03-16T02:22:55;1.70;;;0.40;;
69569;SDS011;56781;42.292;23.146;2023-03-16T02:25:25;1.27;;;0.40;;
69569;SDS011;56781;42.292;23.146;2023-03-16T02:30:59;1.88;;;0.43;;
69569;SDS011;56781;42.292;23.146;2023-03-16T02:33:27;1.70;;;0.50;;
69569;SDS011;56781;42.292;23.146;2023-03-16T02:35:57;1.45;;;0.40;;
69569;SDS011;56781;42.292;23.146;2023-03-16T02:38:24;1.40;;;0.40;;
69569;SDS011;56781;42.292;23.146;2023-03-16T02:41:08;1.60;;;0.40;;
69569;SDS011;56781;42.292;23.146;2023-03-16T02:43:38;1.83;;;0.47;;
69569;SDS011;56781;42.292;23.146;2023-03-16T02:46:12;1.70;;;0.70;;
69569;SDS011;56781;42.292;23.146;2023-03-16T02:48:45;2.22;;;0.40;;
69569;SDS011;56781;42.292;23.146;2023-03-16T02:51:18;1.77;;;0.35;;
69569;SDS011;56781;42.292;23.146;2023-03-16T02:53:46;1.27;;;0.33;;
69569;SDS011;56781;42.292;23.146;2023-03-16T02:56:13;1.50;;;0.40;;
69569;SDS011;56781;42.292;23.146;2023-03-16T02:58:40;1.30;;;0.40;;
69569;SDS011;56781;42.292;23.146;2023-03-16T03:01:07;1.70;;;0.40;;
69569;SDS011;56781;42.292;23.146;2023-03-16T03:03:34;1.88;;;0.47;;
69569;SDS011;56781;42.292;23.146;2023-03-16T03:06:02;2.03;;;0.40;;
69569;SDS011;56781;42.292;23.146;2023-03-16T03:08:29;2.33;;;0.60;;
69569;SDS011;56781;42.292;23.146;2023-03-16T03:10:58;2.35;;;0.60;;
69569;SDS011;56781;42.292;23.146;2023-03-16T03:13:25;1.95;;;0.60;;
69569;SDS011;56781;42.292;23.146;2023-03-16T03:15:53;1.85;;;0.50;;
69569;SDS011;56781;42.292;23.146;2023-03-16T03:18:20;2.37;;;0.60;;
69569;SDS011;56781;42.292;23.146;2023-03-16T03:20:47;2.00;;;0.50;;
69569;SDS011;56781;42.292;23.146;2023-03-16T03:23:14;2.22;;;0.70;;
69569;SDS011;56781;42.292;23.146;2023-03-16T03:25:42;2.78;;;0.90;;
69569;SDS011;56781;42.292;23.146;2023-03-16T03:28:10;1.95;;;0.70;;
69569;SDS011;56781;42.292;23.146;2023-03-16T03:30:37;2.30;;;0.60;;
69569;SDS011;56781;42.292;23.146;2023-03-16T03:33:05;3.05;;;0.63;;
69569;SDS011;56781;42.292;23.146;2023-03-16T03:35:32;2.65;;;0.70;;
69569;SDS011;56781;42.292;23.146;2023-03-16T03:37:59;2.20;;;0.60;;
69569;SDS011;56781;42.292;23.146;2023-03-16T03:40:26;2.85;;;0.88;;
69569;SDS011;56781;42.292;23.146;2023-03-16T03:42:54;2.67;;;0.50;;
69569;SDS011;56781;42.292;23.146;2023-03-16T03:45:21;2.67;;;0.52;;
69569;SDS011;56781;42.292;23.146;2023-03-16T03:47:48;3.35;;;0.70;;
69569;SDS011;56781;42.292;23.146;2023-03-16T03:50:16;2.15;;;0.60;;
69569;SDS011;56781;42.292;23.146;2023-03-16T03:52:44;1.60;;;0.45;;
69569;SDS011;56781;42.292;23.146;2023-03-16T03:55:11;1.70;;;0.30;;
69569;SDS011;56781;42.292;23.146;2023-03-16T03:57:38;4.15;;;0.60;;
69569;SDS011;56781;42.292;23.146;2023-03-16T04:00:06;2.55;;;0.63;;
69569;SDS011;56781;42.292;23.146;2023-03-16T04:02:39;2.30;;;0.50;;
69569;SDS011;56781;42.292;23.146;2023-03-16T04:05:06;2.08;;;0.50;;
69569;SDS011;56781;42.292;23.146;2023-03-16T04:07:34;1.93;;;0.43;;
69569;SDS011;56781;42.292;23.146;2023-03-16T04:10:01;2.67;;;0.52;;
69569;SDS011;56781;42.292;23.146;2023-03-16T04:12:28;1.80;;;0.40;;
69569;SDS011;56781;42.292;23.146;2023-03-16T04:14:55;1.63;;;0.43;;
69569;SDS011;56781;42.292;23.146;2023-03-16T04:17:22;4.68;;;0.47;;
69569;SDS011;56781;42.292;23.146;2023-03-16T04:19:49;2.80;;;0.70;;
69569;SDS011;56781;42.292;23.146;2023-03-16T04:22:17;2.13;;;0.70;;
69569;SDS011;56781;42.292;23.146;2023-03-16T04:24:44;2.55;;;0.57;;
69569;SDS011;56781;42.292;23.146;2023-03-16T04:27:11;3.80;;;0.93;;
69569;SDS011;56781;42.292;23.146;2023-03-16T04:29:38;17.15;;;5.25;;
69569;SDS011;56781;42.292;23.146;2023-03-16T04:32:06;14.67;;;3.83;;
69569;SDS011;56781;42.292;23.146;2023-03-16T04:34:33;15.25;;;4.57;;
69569;SDS011;56781;42.292;23.146;2023-03-16T04:37:00;18.55;;;7.18;;
69569;SDS011;56781;42.292;23.146;2023-03-16T04:39:27;15.77;;;6.20;;
69569;SDS011;56781;42.292;23.146;2023-03-16T04:41:55;6.60;;;2.45;;
69569;SDS011;56781;42.292;23.146;2023-03-16T04:44:22;2.97;;;0.80;;
69569;SDS011;56781;42.292;23.146;2023-03-16T04:46:51;4.55;;;1.10;;
69569;SDS011;56781;42.292;23.146;2023-03-16T04:49:18;18.20;;;5.78;;
69569;SDS011;56781;42.292;23.146;2023-03-16T04:51:45;5.70;;;2.10;;
69569;SDS011;56781;42.292;23.146;2023-03-16T04:54:12;4.40;;;1.30;;
69569;SDS011;56781;42.292;23.146;2023-03-16T04:56:40;4.43;;;1.73;;
69569;SDS011;56781;42.292;23.146;2023-03-16T04:59:07;4.18;;;1.67;;
69569;SDS011;56781;42.292;23.146;2023-03-16T05:01:34;3.33;;;1.10;;
69569;SDS011;56781;42.292;23.146;2023-03-16T05:04:01;2.13;;;0.70;;
69569;SDS011;56781;42.292;23.146;2023-03-16T05:06:28;2.40;;;0.80;;
69569;SDS011;56781;42.292;23.146;2023-03-16T05:08:57;5.33;;;1.60;;
69569;SDS011;56781;42.292;23.146;2023-03-16T05:11:26;4.97;;;1.70;;
69569;SDS011;56781;42.292;23.146;2023-03-16T05:13:53;9.93;;;2.30;;
69569;SDS011;56781;42.292;23.146;2023-03-16T05:16:20;15.68;;;4.40;;
69569;SDS011;56781;42.292;23.146;2023-03-16T05:18:48;2.88;;;1.00;;
69569;SDS011;56781;42.292;23.146;2023-03-16T05:21:15;1.60;;;0.37;;
69569;SDS011;56781;42.292;23.146;2023-03-16T05:23:42;3.15;;;1.15;;
69569;SDS011;56781;42.292;23.146;2023-03-16T05:26:09;4.25;;;1.27;;
69569;SDS011;56781;42.292;23.146;2023-03-16T05:28:38;1.73;;;0.43;;
69569;SDS011;56781;42.292;23.146;2023-03-16T05:31:05;1.27;;;0.38;;
69569;SDS011;56781;42.292;23.146;2023-03-16T05:33:33;3.53;;;0.73;;
69569;SDS011;56781;42.292;23.146;2023-03-16T05:36:01;4.85;;;1.70;;
69569;SDS011;56781;42.292;23.146;2023-03-16T05:38:29;7.78;;;2.55;;
69569;SDS011;56781;42.292;23.146;2023-03-16T05:40:57;1.40;;;0.40;;
69569;SDS011;56781;42.292;23.146;2023-03-16T05:43:30;0.73;;;0.20;;
69569;SDS011;56781;42.292;23.146;2023-03-16T05:45:58;1.60;;;0.50;;
69569;SDS011;56781;42.292;23.146;2023-03-16T05:48:25;1.85;;;0.50;;
69569;SDS011;56781;42.292;23.146;2023-03-16T05:50:52;6.95;;;2.53;;
69569;SDS011;56781;42.292;23.146;2023-03-16T05:53:20;1.70;;;0.50;;
69569;SDS011;56781;42.292;23.146;2023-03-16T05:55:54;2.22;;;0.30;;
69569;SDS011;56781;42.292;23.146;2023-03-16T05:58:21;1.40;;;0.40;;
69569;SDS011;56781;42.292;23.146;2023-03-16T06:00:48;0.90;;;0.30;;
69569;SDS011;56781;42.292;23.146;2023-03-16T06:03:16;1.30;;;0.40;;
69569;SDS011;56781;42.292;23.146;2023-03-16T06:05:43;1.67;;;0.35;;
69569;SDS011;56781;42.292;23.146;2023-03-16T06:08:10;1.52;;;0.40;;
69569;SDS011;56781;42.292;23.146;2023-03-16T06:10:37;1.70;;;0.40;;
69569;SDS011;56781;42.292;23.146;2023-03-16T06:13:04;2.00;;;0.40;;
69569;SDS011;56781;42.292;23.146;2023-03-16T06:15:31;2.13;;;0.60;;
69569;SDS011;56781;42.292;23.146;2023-03-16T06:17:58;1.70;;;0.40;;
69569;SDS011;56781;42.292;23.146;2023-03-16T06:20:26;1.48;;;0.40;;
69569;SDS011;56781;42.292;23.146;2023-03-16T06:22:54;1.53;;;0.40;;
69569;SDS011;56781;42.292;23.146;2023-03-16T06:25:21;2.85;;;0.50;;
69569;SDS011;56781;42.292;23.146;2023-03-16T06:27:49;6.38;;;2.58;;
69569;SDS011;56781;42.292;23.146;2023-03-16T06:30:17;3.90;;;1.52;;
69569;SDS011;56781;42.292;23.146;2023-03-16T06:32:44;8.02;;;2.55;;
69569;SDS011;56781;42.292;23.146;2023-03-16T06:35:12;5.13;;;2.00;;
69569;SDS011;56781;42.292;23.146;2023-03-16T06:37:39;7.03;;;3.00;;
69569;SDS011;56781;42.292;23.146;2023-03-16T06:40:06;14.75;;;3.65;;
69569;SDS011;56781;42.292;23.146;2023-03-16T06:42:34;4.93;;;1.80;;
69569;SDS011;56781;42.292;23.146;2023-03-16T06:45:01;3.50;;;1.30;;
69569;SDS011;56781;42.292;23.146;2023-03-16T06:47:29;5.17;;;1.33;;
69569;SDS011;56781;42.292;23.146;2023-03-16T06:49:57;6.20;;;2.30;;
69569;SDS011;56781;42.292;23.146;2023-03-16T06:52:24;2.13;;;0.50;;
69569;SDS011;56781;42.292;23.146;2023-03-16T06:54:51;1.25;;;0.40;;
69569;SDS011;56781;42.292;23.146;2023-03-16T06:57:19;1.58;;;0.50;;
69569;SDS011;56781;42.292;23.146;2023-03-16T06:59:46;9.77;;;2.43;;
69569;SDS011;56781;42.292;23.146;2023-03-16T07:02:13;2.75;;;0.70;;
69569;SDS011;56781;42.292;23.146;2023-03-16T07:04:42;1.70;;;0.50;;
69569;SDS011;56781;42.292;23.146;2023-03-16T07:07:10;3.05;;;0.77;;
69569;SDS011;56781;42.292;23.146;2023-03-16T07:09:37;1.67;;;0.45;;
69569;SDS011;56781;42.292;23.146;2023-03-16T07:12:07;5.67;;;1.30;;
69569;SDS011;56781;42.292;23.146;2023-03-16T07:14:34;1.10;;;0.30;;
69569;SDS011;56781;42.292;23.146;2023-03-16T07:17:03;1.77;;;0.50;;
69569;SDS011;56781;42.292;23.146;2023-03-16T07:19:30;1.17;;;0.38;;
69569;SDS011;56781;42.292;23.146;2023-03-16T07:21:57;2.88;;;0.60;;
69569;SDS011;56781;42.292;23.146;2023-03-16T07:24:25;1.67;;;0.50;;
69569;SDS011;56781;42.292;23.146;2023-03-16T07:26:52;2.40;;;0.47;;
69569;SDS011;56781;42.292;23.146;2023-03-16T07:29:19;2.50;;;0.70;;
69569;SDS011;56781;42.292;23.146;2023-03-16T07:31:47;1.65;;;0.40;;
69569;SDS011;56781;42.292;23.146;2023-03-16T07:34:14;2.13;;;0.45;;
69569;SDS011;56781;42.292;23.146;2023-03-16T07:36:41;1.40;;;0.40;;
69569;SDS011;56781;42.292;23.146;2023-03-16T07:39:09;1.15;;;0.30;;
69569;SDS011;56781;42.292;23.146;2023-03-16T07:41:39;1.40;;;0.40;;
69569;SDS011;56781;42.292;23.146;2023-03-16T07:44:07;1.38;;;0.40;;
69569;SDS011;56781;42.292;23.146;2023-03-16T07:46:34;1.67;;;0.60;;
69569;SDS011;56781;42.292;23.146;2023-03-16T07:49:01;1.60;;;0.50;;
69569;SDS011;56781;42.292;23.146;2023-03-16T07:51:29;2.42;;;0.60;;
69569;SDS011;56781;42.292;23.146;2023-03-16T07:53:56;1.90;;;0.60;;
69569;SDS011;56781;42.292;23.146;2023-03-16T07:56:23;2.17;;;0.50;;
69569;SDS011;56781;42.292;23.146;2023-03-16T07:58:54;0.95;;;0.32;;
69569;SDS011;56781;42.292;23.146;2023-03-16T08:01:22;3.20;;;0.70;;
69569;SDS011;56781;42.292;23.146;2023-03-16T08:03:49;1.92;;;0.50;;
69569;SDS011;56781;42.292;23.146;2023-03-16T08:06:16;2.50;;;0.50;;
69569;SDS011;56781;42.292;23.146;2023-03-16T08:08:44;1.58;;;0.40;;
69569;SDS011;56781;42.292;23.146;2023-03-16T08:11:11;2.22;;;0.70;;
69569;SDS011;56781;42.292;23.146;2023-03-16T08:13:39;1.90;;;0.60;;
69569;SDS011;56781;42.292;23.146;2023-03-16T08:16:09;4.25;;;0.60;;
69569;SDS011;56781;42.292;23.146;2023-03-16T08:18:39;3.08;;;0.90;;
69569;SDS011;56781;42.292;23.146;2023-03-16T08:21:07;2.15;;;0.70;;
69569;SDS011;56781;42.292;23.146;2023-03-16T08:23:34;0.98;;;0.30;;
69569;SDS011;56781;42.292;23.146;2023-03-16T08:26:02;2.47;;;0.60;;
69569;SDS011;56781;42.292;23.146;2023-03-16T08:28:34;1.40;;;0.40;;
69569;SDS011;56781;42.292;23.146;2023-03-16T08:31:01;3.35;;;0.60;;
69569;SDS011;56781;42.292;23.146;2023-03-16T08:33:33;2.40;;;0.80;;
69569;SDS011;56781;42.292;23.146;2023-03-16T08:36:01;2.60;;;0.70;;
69569;SDS011;56781;42.292;23.146;2023-03-16T08:38:32;1.30;;;0.37;;
69569;SDS011;56781;42.292;23.146;2023-03-16T08:40:59;1.75;;;0.55;;
69569;SDS011;56781;42.292;23.146;2023-03-16T08:43:27;1.50;;;0.45;;
69569;SDS011;56781;42.292;23.146;2023-03-16T08:45:54;2.13;;;0.60;;
69569;SDS011;56781;42.292;23.146;2023-03-16T08:48:22;1.23;;;0.32;;
69569;SDS011;56781;42.292;23.146;2023-03-16T08:50:49;0.97;;;0.30;;
69569;SDS011;56781;42.292;23.146;2023-03-16T08:53:17;1.10;;;0.45;;
69569;SDS011;56781;42.292;23.146;2023-03-16T08:55:44;2.30;;;0.68;;
69569;SDS011;56781;42.292;23.146;2023-03-16T08:58:11;0.80;;;0.25;;
69569;SDS011;56781;42.292;23.146;2023-03-16T09:00:39;1.67;;;0.50;;
69569;SDS011;56781;42.292;23.146;2023-03-16T09:03:07;1.27;;;0.40;;
69569;SDS011;56781;42.292;23.146;2023-03-16T09:05:35;1.98;;;0.55;;
69569;SDS011;56781;42.292;23.146;2023-03-16T09:08:03;1.83;;;0.40;;
69569;SDS011;56781;42.292;23.146;2023-03-16T09:10:31;1.80;;;0.50;;
69569;SDS011;56781;42.292;23.146;2023-03-16T09:12:59;2.90;;;0.90;;
69569;SDS011;56781;42.292;23.146;2023-03-16T09:15:26;0.97;;;0.30;;
69569;SDS011;56781;42.292;23.146;2023-03-16T09:17:54;1.55;;;0.50;;
69569;SDS011;56781;42.292;23.146;2023-03-16T09:20:23;2.80;;;0.70;;
69569;SDS011;56781;42.292;23.146;2023-03-16T09:22:55;4.28;;;0.60;;
69569;SDS011;56781;42.292;23.146;2023-03-16T09:25:24;1.60;;;0.50;;
69569;SDS011;56781;42.292;23.146;2023-03-16T09:27:51;1.13;;;0.30;;
69569;SDS011;56781;42.292;23.146;2023-03-16T09:30:19;1.58;;;0.50;;
69569;SDS011;56781;42.292;23.146;2023-03-16T09:32:46;2.45;;;0.60;;
69569;SDS011;56781;42.292;23.146;2023-03-16T09:35:14;2.08;;;0.63;;
69569;SDS011;56781;42.292;23.146;2023-03-16T09:37:42;3.13;;;0.70;;
69569;SDS011;56781;42.292;23.146;2023-03-16T09:40:29;1.13;;;0.37;;
69569;SDS011;56781;42.292;23.146;2023-03-16T09:43:14;1.33;;;0.40;;
69569;SDS011;56781;42.292;23.146;2023-03-16T09:48:35;2.05;;;0.50;;
69569;SDS011;56781;42.292;23.146;2023-03-16T09:51:19;1.65;;;0.50;;
69569;SDS011;56781;42.292;23.146;2023-03-16T09:54:01;1.90;;;0.63;;
69569;SDS011;56781;42.292;23.146;2023-03-16T09:56:34;2.40;;;0.70;;
69569;SDS011;56781;42.292;23.146;2023-03-16T09:59:10;2.20;;;0.70;;
69569;SDS011;56781;42.292;23.146;2023-03-16T10:01:43;1.60;;;0.60;;
69569;SDS011;56781;42.292;23.146;2023-03-16T10:04:35;1.48;;;0.50;;
69569;SDS011;56781;42.292;23.146;2023-03-16T10:07:24;2.03;;;0.60;;
69569;SDS011;56781;42.292;23.146;2023-03-16T10:13:04;1.13;;;0.38;;
69569;SDS011;56781;42.292;23.146;2023-03-16T10:15:42;1.70;;;0.40;;
69569;SDS011;56781;42.292;23.146;2023-03-16T10:18:15;1.75;;;0.45;;
69569;SDS011;56781;42.292;23.146;2023-03-16T10:20:54;1.53;;;0.57;;
69569;SDS011;56781;42.292;23.146;2023-03-16T10:23:24;1.45;;;0.43;;
69569;SDS011;56781;42.292;23.146;2023-03-16T10:25:52;1.30;;;0.40;;
69569;SDS011;56781;42.292;23.146;2023-03-16T10:28:22;1.88;;;0.70;;
69569;SDS011;56781;42.292;23.146;2023-03-16T10:30:54;1.38;;;0.30;;
69569;SDS011;56781;42.292;23.146;2023-03-16T10:33:24;1.30;;;0.47;;
69569;SDS011;56781;42.292;23.146;2023-03-16T10:38:27;2.00;;;0.70;;
69569;SDS011;56781;42.292;23.146;2023-03-16T10:40:56;1.77;;;0.70;;
69569;SDS011;56781;42.292;23.146;2023-03-16T10:43:24;1.90;;;0.70;;
69569;SDS011;56781;42.292;23.146;2023-03-16T10:45:56;1.63;;;0.60;;
69569;SDS011;56781;42.292;23.146;2023-03-16T10:48:30;1.40;;;0.47;;
69569;SDS011;56781;42.292;23.146;2023-03-16T10:51:01;1.50;;;0.50;;
69569;SDS011;56781;42.292;23.146;2023-03-16T10:53:34;2.13;;;0.77;;
69569;SDS011;56781;42.292;23.146;2023-03-16T10:56:18;2.50;;;0.80;;
69569;SDS011;56781;42.292;23.146;2023-03-16T10:58:48;2.13;;;0.80;;
69569;SDS011;56781;42.292;23.146;2023-03-16T11:01:20;1.65;;;0.57;;
69569;SDS011;56781;42.292;23.146;2023-03-16T11:03:52;2.00;;;0.70;;
69569;SDS011;56781;42.292;23.146;2023-03-16T11:06:25;2.90;;;0.85;;
69569;SDS011;56781;42.292;23.146;2023-03-16T11:09:03;3.40;;;0.68;;
69569;SDS011;56781;42.292;23.146;2023-03-16T11:11:34;4.17;;;0.70;;
69569;SDS011;56781;42.292;23.146;2023-03-16T11:14:03;3.45;;;1.17;;
69569;SDS011;56781;42.292;23.146;2023-03-16T11:16:46;2.35;;;0.80;;
69569;SDS011;56781;42.292;23.146;2023-03-16T11:19:20;2.67;;;1.02;;
69569;SDS011;56781;42.292;23.146;2023-03-16T11:21:57;3.00;;;1.20;;
69569;SDS011;56781;42.292;23.146;2023-03-16T11:24:48;3.30;;;1.40;;
69569;SDS011;56781;42.292;23.146;2023-03-16T11:27:23;4.22;;;1.50;;
69569;SDS011;56781;42.292;23.146;2023-03-16T11:29:58;3.80;;;1.70;;
69569;SDS011;56781;42.292;23.146;2023-03-16T11:32:37;2.60;;;1.00;;
69569;SDS011;56781;42.292;23.146;2023-03-16T11:35:10;3.78;;;1.10;;
69569;SDS011;56781;42.292;23.146;2023-03-16T11:37:47;2.00;;;0.77;;
69569;SDS011;56781;42.292;23.146;2023-03-16T11:40:35;1.85;;;0.70;;
69569;SDS011;56781;42.292;23.146;2023-03-16T11:43:18;2.72;;;0.80;;
69569;SDS011;56781;42.292;23.146;2023-03-16T11:52:02;2.67;;;1.20;;
69569;SDS011;56781;42.292;23.146;2023-03-16T11:57:29;2.67;;;1.02;;
69569;SDS011;56781;42.292;23.146;2023-03-16T12:08:32;2.58;;;1.20;;
69569;SDS011;56781;42.292;23.146;2023-03-16T12:11:11;3.08;;;1.40;;
69569;SDS011;56781;42.292;23.146;2023-03-16T12:16:28;4.88;;;1.20;;
69569;SDS011;56781;42.292;23.146;2023-03-16T12:19:25;3.10;;;1.23;;
69569;SDS011;56781;42.292;23.146;2023-03-16T12:25:16;2.55;;;1.25;;
69569;SDS011;56781;42.292;23.146;2023-03-16T12:27:48;2.95;;;1.20;;
69569;SDS011;56781;42.292;23.146;2023-03-16T12:30:41;2.40;;;0.95;;
69569;SDS011;56781;42.292;23.146;2023-03-16T12:33:26;3.23;;;1.20;;
69569;SDS011;56781;42.292;23.146;2023-03-16T12:44:16;1.50;;;0.68;;
69569;SDS011;56781;42.292;23.146;2023-03-16T12:49:27;3.00;;;1.35;;
69569;SDS011;56781;42.292;23.146;2023-03-16T12:51:59;2.72;;;0.90;;
69569;SDS011;56781;42.292;23.146;2023-03-16T12:54:31;3.28;;;0.95;;
69569;SDS011;56781;42.292;23.146;2023-03-16T12:57:05;5.55;;;2.00;;
69569;SDS011;56781;42.292;23.146;2023-03-16T12:59:39;3.90;;;1.30;;
69569;SDS011;56781;42.292;23.146;2023-03-16T13:02:18;3.25;;;1.20;;
69569;SDS011;56781;42.292;23.146;2023-03-16T13:04:56;3.95;;;1.90;;
69569;SDS011;56781;42.292;23.146;2023-03-16T13:07:27;4.22;;;1.80;;
69569;SDS011;56781;42.292;23.146;2023-03-16T13:10:00;3.40;;;1.58;;
69569;SDS011;56781;42.292;23.146;2023-03-16T13:12:38;3.60;;;1.43;;
69569;SDS011;56781;42.292;23.146;2023-03-16T13:15:14;4.25;;;1.90;;
69569;SDS011;56781;42.292;23.146;2023-03-16T13:18:03;5.25;;;2.08;;
69569;SDS011;56781;42.292;23.146;2023-03-16T13:23:22;4.13;;;1.42;;
69569;SDS011;56781;42.292;23.146;2023-03-16T13:26:13;4.00;;;1.60;;
69569;SDS011;56781;42.292;23.146;2023-03-16T13:28:49;4.43;;;2.00;;
69569;SDS011;56781;42.292;23.146;2023-03-16T13:31:19;5.75;;;1.92;;
69569;SDS011;56781;42.292;23.146;2023-03-16T13:33:52;4.40;;;1.55;;
69569;SDS011;56781;42.292;23.146;2023-03-16T13:36:23;3.00;;;1.25;;
69569;SDS011;56781;42.292;23.146;2023-03-16T13:38:56;2.43;;;1.20;;
69569;SDS011;56781;42.292;23.146;2023-03-16T13:41:39;3.90;;;1.75;;
69569;SDS011;56781;42.292;23.146;2023-03-16T13:44:13;4.18;;;1.92;;
69569;SDS011;56781;42.292;23.146;2023-03-16T13:46:41;4.72;;;1.48;;
69569;SDS011;56781;42.292;23.146;2023-03-16T13:49:10;2.72;;;1.10;;
69569;SDS011;56781;42.292;23.146;2023-03-16T13:51:38;4.37;;;1.90;;
69569;SDS011;56781;42.292;23.146;2023-03-16T13:54:17;3.20;;;1.48;;
69569;SDS011;56781;42.292;23.146;2023-03-16T13:56:52;3.95;;;1.63;;
69569;SDS011;56781;42.292;23.146;2023-03-16T13:59:23;4.97;;;1.88;;
69569;SDS011;56781;42.292;23.146;2023-03-16T14:01:55;3.13;;;1.30;;
69569;SDS011;56781;42.292;23.146;2023-03-16T14:04:26;2.93;;;1.23;;
69569;SDS011;56781;42.292;23.146;2023-03-16T14:06:56;3.42;;;0.93;;
69569;SDS011;56781;42.292;23.146;2023-03-16T14:09:27;2.55;;;1.20;;
69569;SDS011;56781;42.292;23.146;2023-03-16T14:11:57;3.58;;;1.33;;
69569;SDS011;56781;42.292;23.146;2023-03-16T14:14:29;2.65;;;1.20;;
69569;SDS011;56781;42.292;23.146;2023-03-16T14:17:03;2.83;;;1.07;;
69569;SDS011;56781;42.292;23.146;2023-03-16T14:19:44;5.60;;;1.98;;
69569;SDS011;56781;42.292;23.146;2023-03-16T14:22:15;4.75;;;1.95;;
69569;SDS011;56781;42.292;23.146;2023-03-16T14:24:46;3.92;;;1.65;;
69569;SDS011;56781;42.292;23.146;2023-03-16T14:27:21;3.33;;;1.35;;
69569;SDS011;56781;42.292;23.146;2023-03-16T14:32:40;3.47;;;1.55;;
69569;SDS011;56781;42.292;23.146;2023-03-16T14:35:19;5.07;;;2.30;;
69569;SDS011;56781;42.292;23.146;2023-03-16T14:37:47;5.85;;;1.70;;
69569;SDS011;56781;42.292;23.146;2023-03-16T14:40:21;4.30;;;1.63;;
69569;SDS011;56781;42.292;23.146;2023-03-16T14:42:58;5.33;;;2.13;;
69569;SDS011;56781;42.292;23.146;2023-03-16T14:45:32;5.38;;;2.05;;
69569;SDS011;56781;42.292;23.146;2023-03-16T14:48:14;4.45;;;2.17;;
69569;SDS011;56781;42.292;23.146;2023-03-16T14:50:52;3.53;;;1.48;;
69569;SDS011;56781;42.292;23.146;2023-03-16T14:53:20;3.25;;;1.60;;
69569;SDS011;56781;42.292;23.146;2023-03-16T14:55:49;4.30;;;1.87;;
69569;SDS011;56781;42.292;23.146;2023-03-16T14:58:17;4.95;;;2.17;;
69569;SDS011;56781;42.292;23.146;2023-03-16T15:00:44;3.42;;;1.52;;
69569;SDS011;56781;42.292;23.146;2023-03-16T15:03:19;6.03;;;2.35;;
69569;SDS011;56781;42.292;23.146;2023-03-16T15:05:49;6.13;;;2.38;;
69569;SDS011;56781;42.292;23.146;2023-03-16T15:10:58;3.83;;;1.23;;
69569;SDS011;56781;42.292;23.146;2023-03-16T15:13:28;5.10;;;2.10;;
69569;SDS011;56781;42.292;23.146;2023-03-16T15:16:11;4.93;;;2.38;;
69569;SDS011;56781;42.292;23.146;2023-03-16T15:18:40;4.97;;;2.00;;
69569;SDS011;56781;42.292;23.146;2023-03-16T15:21:08;5.77;;;2.40;;
69569;SDS011;56781;42.292;23.146;2023-03-16T15:23:41;4.07;;;2.20;;
69569;SDS011;56781;42.292;23.146;2023-03-16T15:26:13;5.38;;;2.42;;
69569;SDS011;56781;42.292;23.146;2023-03-16T15:28:42;5.32;;;2.83;;
69569;SDS011;56781;42.292;23.146;2023-03-16T15:31:10;5.82;;;2.55;;
69569;SDS011;56781;42.292;23.146;2023-03-16T15:33:39;7.07;;;3.17;;
69569;SDS011;56781;42.292;23.146;2023-03-16T15:36:15;5.70;;;2.60;;
69569;SDS011;56781;42.292;23.146;2023-03-16T15:38:45;6.60;;;3.00;;
69569;SDS011;56781;42.292;23.146;2023-03-16T15:41:14;4.55;;;2.00;;
69569;SDS011;56781;42.292;23.146;2023-03-16T15:43:41;6.63;;;2.90;;
69569;SDS011;56781;42.292;23.146;2023-03-16T15:46:11;8.20;;;3.40;;
69569;SDS011;56781;42.292;23.146;2023-03-16T15:48:39;7.07;;;2.88;;
69569;SDS011;56781;42.292;23.146;2023-03-16T15:53:52;4.13;;;1.95;;